sensor_id;sensor_type;location;lat;lon;timestamp;temperature;humidity
3356;DHT22;1691;52.486;13.374;2023-12-29T00:02:16;8.50;97.60
3356;DHT22;1691;52.486;13.374;2023-12-29T00:04:43;8.50;97.50
3356;DHT22;1691;52.486;13.374;2023-12-29T00:07:10;8.50;97.40
3356;DHT22;1691;52.486;13.374;2023-12-29T00:09:37;8.50;97.40
3356;DHT22;1691;52.486;13.374;2023-12-29T00:12:08;8.60;97.40
3356;DHT22;1691;52.486;13.374;2023-12-29T00:14:39;8.60;97.40
3356;DHT22;1691;52.486;13.374;2023-12-29T00:17:07;8.60;97.40
3356;DHT22;1691;52.486;13.374;2023-12-29T00:19:34;8.60;97.40
3356;DHT22;1691;52.486;13.374;2023-12-29T00:22:02;8.60;97.40
3356;DHT22;1691;52.486;13.374;2023-12-29T00:24:30;8.60;97.40
3356;DHT22;1691;52.486;13.374;2023-12-29T00:26:58;8.60;97.40
3356;DHT22;1691;52.486;13.374;2023-12-29T00:29:26;8.60;97.40
3356;DHT22;1691;52.486;13.374;2023-12-29T00:31:59;8.60;97.40
3356;DHT22;1691;52.486;13.374;2023-12-29T00:34:30;8.60;97.40
3356;DHT22;1691;52.486;13.374;2023-12-29T00:36:58;8.60;97.40
3356;DHT22;1691;52.486;13.374;2023-12-29T00:39:25;8.60;97.40
3356;DHT22;1691;52.486;13.374;2023-12-29T00:41:57;8.60;97.20
3356;DHT22;1691;52.486;13.374;2023-12-29T00:44:24;8.60;97.20
3356;DHT22;1691;52.486;13.374;2023-12-29T00:46:51;8.60;97.20
3356;DHT22;1691;52.486;13.374;2023-12-29T00:49:19;8.60;97.20
3356;DHT22;1691;52.486;13.374;2023-12-29T00:51:47;8.70;97.20
3356;DHT22;1691;52.486;13.374;2023-12-29T00:54:15;8.70;97.10
3356;DHT22;1691;52.486;13.374;2023-12-29T00:56:51;8.70;97.10
3356;DHT22;1691;52.486;13.374;2023-12-29T00:59:19;8.70;97.00
3356;DHT22;1691;52.486;13.374;2023-12-29T01:01:48;8.70;97.00
3356;DHT22;1691;52.486;13.374;2023-12-29T01:04:16;8.70;96.90
3356;DHT22;1691;52.486;13.374;2023-12-29T01:06:43;8.60;96.90
3356;DHT22;1691;52.486;13.374;2023-12-29T01:09:11;8.60;96.90
3356;DHT22;1691;52.486;13.374;2023-12-29T01:11:38;8.60;96.80
3356;DHT22;1691;52.486;13.374;2023-12-29T01:14:05;8.60;96.80
3356;DHT22;1691;52.486;13.374;2023-12-29T01:16:32;8.60;96.80
3356;DHT22;1691;52.486;13.374;2023-12-29T01:18:59;8.60;96.80
3356;DHT22;1691;52.486;13.374;2023-12-29T01:21:27;8.60;96.80
3356;DHT22;1691;52.486;13.374;2023-12-29T01:23:54;8.60;96.70
3356;DHT22;1691;52.486;13.374;2023-12-29T01:26:21;8.60;96.70
3356;DHT22;1691;52.486;13.374;2023-12-29T01:28:48;8.60;96.60
3356;DHT22;1691;52.486;13.374;2023-12-29T01:31:15;8.60;96.60
3356;DHT22;1691;52.486;13.374;2023-12-29T01:33:42;8.60;96.60
3356;DHT22;1691;52.486;13.374;2023-12-29T01:36:09;8.60;96.60
3356;DHT22;1691;52.486;13.374;2023-12-29T01:38:50;8.60;96.60
3356;DHT22;1691;52.486;13.374;2023-12-29T01:41:20;8.60;96.50
3356;DHT22;1691;52.486;13.374;2023-12-29T01:46:31;8.70;96.50
3356;DHT22;1691;52.486;13.374;2023-12-29T01:49:00;8.60;96.40
3356;DHT22;1691;52.486;13.374;2023-12-29T01:51:29;8.60;96.40
3356;DHT22;1691;52.486;13.374;2023-12-29T01:53:57;8.60;96.40
3356;DHT22;1691;52.486;13.374;2023-12-29T01:56:25;8.60;96.40
3356;DHT22;1691;52.486;13.374;2023-12-29T01:58:55;8.60;96.40
3356;DHT22;1691;52.486;13.374;2023-12-29T02:01:34;8.60;96.40
3356;DHT22;1691;52.486;13.374;2023-12-29T02:04:03;8.60;96.40
3356;DHT22;1691;52.486;13.374;2023-12-29T02:06:31;8.60;96.40
3356;DHT22;1691;52.486;13.374;2023-12-29T02:09:02;8.60;96.40
3356;DHT22;1691;52.486;13.374;2023-12-29T02:11:32;8.60;96.40
3356;DHT22;1691;52.486;13.374;2023-12-29T02:14:00;8.60;96.40
3356;DHT22;1691;52.486;13.374;2023-12-29T02:16:33;8.60;96.40
3356;DHT22;1691;52.486;13.374;2023-12-29T02:21:58;8.70;96.40
3356;DHT22;1691;52.486;13.374;2023-12-29T02:24:25;8.70;96.40
3356;DHT22;1691;52.486;13.374;2023-12-29T02:29:44;8.70;96.30
3356;DHT22;1691;52.486;13.374;2023-12-29T02:32:18;8.70;96.30
3356;DHT22;1691;52.486;13.374;2023-12-29T02:34:47;8.70;96.30
3356;DHT22;1691;52.486;13.374;2023-12-29T02:37:16;8.70;96.30
3356;DHT22;1691;52.486;13.374;2023-12-29T02:39:43;8.70;96.30
3356;DHT22;1691;52.486;13.374;2023-12-29T02:42:11;8.70;96.30
3356;DHT22;1691;52.486;13.374;2023-12-29T02:44:37;8.70;96.30
3356;DHT22;1691;52.486;13.374;2023-12-29T02:47:05;8.70;96.30
3356;DHT22;1691;52.486;13.374;2023-12-29T02:49:32;8.60;96.30
3356;DHT22;1691;52.486;13.374;2023-12-29T02:51:59;8.60;96.30
3356;DHT22;1691;52.486;13.374;2023-12-29T02:54:26;8.60;96.40
3356;DHT22;1691;52.486;13.374;2023-12-29T02:56:53;8.70;96.40
3356;DHT22;1691;52.486;13.374;2023-12-29T02:59:20;8.70;96.40
3356;DHT22;1691;52.486;13.374;2023-12-29T03:01:47;8.70;96.40
3356;DHT22;1691;52.486;13.374;2023-12-29T03:04:14;8.80;96.30
3356;DHT22;1691;52.486;13.374;2023-12-29T03:06:42;8.80;96.20
3356;DHT22;1691;52.486;13.374;2023-12-29T03:09:09;8.70;96.20
3356;DHT22;1691;52.486;13.374;2023-12-29T03:11:36;8.70;96.20
3356;DHT22;1691;52.486;13.374;2023-12-29T03:14:03;8.70;96.30
3356;DHT22;1691;52.486;13.374;2023-12-29T03:16:30;8.80;96.30
3356;DHT22;1691;52.486;13.374;2023-12-29T03:18:57;8.80;96.40
3356;DHT22;1691;52.486;13.374;2023-12-29T03:21:25;8.80;96.30
3356;DHT22;1691;52.486;13.374;2023-12-29T03:23:52;8.80;96.20
3356;DHT22;1691;52.486;13.374;2023-12-29T03:26:19;8.80;96.10
3356;DHT22;1691;52.486;13.374;2023-12-29T03:28:46;8.80;96.00
3356;DHT22;1691;52.486;13.374;2023-12-29T03:31:13;8.80;96.00
3356;DHT22;1691;52.486;13.374;2023-12-29T03:33:40;8.80;96.00
3356;DHT22;1691;52.486;13.374;2023-12-29T03:36:09;8.80;96.20
3356;DHT22;1691;52.486;13.374;2023-12-29T03:38:36;8.80;96.20
3356;DHT22;1691;52.486;13.374;2023-12-29T03:41:04;8.90;96.30
3356;DHT22;1691;52.486;13.374;2023-12-29T03:43:31;9.00;96.20
3356;DHT22;1691;52.486;13.374;2023-12-29T03:45:58;9.00;96.10
3356;DHT22;1691;52.486;13.374;2023-12-29T03:48:25;9.10;96.00
3356;DHT22;1691;52.486;13.374;2023-12-29T03:50:52;9.10;96.00
3356;DHT22;1691;52.486;13.374;2023-12-29T03:53:19;9.10;95.90
3356;DHT22;1691;52.486;13.374;2023-12-29T03:55:46;9.10;95.80
3356;DHT22;1691;52.486;13.374;2023-12-29T03:58:13;9.20;95.80
3356;DHT22;1691;52.486;13.374;2023-12-29T04:00:40;9.20;95.70
3356;DHT22;1691;52.486;13.374;2023-12-29T04:03:08;9.20;95.70
3356;DHT22;1691;52.486;13.374;2023-12-29T04:05:35;9.20;95.70
3356;DHT22;1691;52.486;13.374;2023-12-29T04:08:02;9.20;95.70
3356;DHT22;1691;52.486;13.374;2023-12-29T04:10:29;9.30;95.70
3356;DHT22;1691;52.486;13.374;2023-12-29T04:12:56;9.30;95.60
3356;DHT22;1691;52.486;13.374;2023-12-29T04:15:23;9.30;95.50
3356;DHT22;1691;52.486;13.374;2023-12-29T04:17:50;9.30;95.40
3356;DHT22;1691;52.486;13.374;2023-12-29T04:20:17;9.30;95.30
3356;DHT22;1691;52.486;13.374;2023-12-29T04:22:45;9.30;95.20
3356;DHT22;1691;52.486;13.374;2023-12-29T04:25:13;9.20;95.20
3356;DHT22;1691;52.486;13.374;2023-12-29T04:27:40;9.20;95.20
3356;DHT22;1691;52.486;13.374;2023-12-29T04:30:08;9.20;95.20
3356;DHT22;1691;52.486;13.374;2023-12-29T04:32:35;9.20;95.30
3356;DHT22;1691;52.486;13.374;2023-12-29T04:35:02;9.20;95.30
3356;DHT22;1691;52.486;13.374;2023-12-29T04:37:29;9.30;95.30
3356;DHT22;1691;52.486;13.374;2023-12-29T04:39:56;9.30;95.20
3356;DHT22;1691;52.486;13.374;2023-12-29T04:42:23;9.30;95.20
3356;DHT22;1691;52.486;13.374;2023-12-29T04:44:50;9.40;95.00
3356;DHT22;1691;52.486;13.374;2023-12-29T04:47:17;9.30;94.80
3356;DHT22;1691;52.486;13.374;2023-12-29T04:49:44;9.30;94.80
3356;DHT22;1691;52.486;13.374;2023-12-29T04:52:12;9.20;94.80
3356;DHT22;1691;52.486;13.374;2023-12-29T04:54:39;9.20;94.80
3356;DHT22;1691;52.486;13.374;2023-12-29T04:57:06;9.20;94.80
3356;DHT22;1691;52.486;13.374;2023-12-29T04:59:33;9.20;94.90
3356;DHT22;1691;52.486;13.374;2023-12-29T05:02:00;9.20;94.90
3356;DHT22;1691;52.486;13.374;2023-12-29T05:04:27;9.20;95.00
3356;DHT22;1691;52.486;13.374;2023-12-29T05:06:54;9.20;94.90
3356;DHT22;1691;52.486;13.374;2023-12-29T05:09:21;9.20;95.00
3356;DHT22;1691;52.486;13.374;2023-12-29T05:11:49;9.20;95.00
3356;DHT22;1691;52.486;13.374;2023-12-29T05:14:16;9.20;95.00
3356;DHT22;1691;52.486;13.374;2023-12-29T05:16:44;9.30;95.00
3356;DHT22;1691;52.486;13.374;2023-12-29T05:19:11;9.30;95.00
3356;DHT22;1691;52.486;13.374;2023-12-29T05:21:38;9.30;95.00
3356;DHT22;1691;52.486;13.374;2023-12-29T05:24:05;9.20;94.80
3356;DHT22;1691;52.486;13.374;2023-12-29T05:26:32;9.20;95.00
3356;DHT22;1691;52.486;13.374;2023-12-29T05:28:59;9.20;95.00
3356;DHT22;1691;52.486;13.374;2023-12-29T05:31:27;9.20;95.00
3356;DHT22;1691;52.486;13.374;2023-12-29T05:33:54;9.20;95.10
3356;DHT22;1691;52.486;13.374;2023-12-29T05:36:21;9.20;95.20
3356;DHT22;1691;52.486;13.374;2023-12-29T05:38:48;9.30;95.20
3356;DHT22;1691;52.486;13.374;2023-12-29T05:41:16;9.30;95.30
3356;DHT22;1691;52.486;13.374;2023-12-29T05:43:42;9.30;95.30
3356;DHT22;1691;52.486;13.374;2023-12-29T05:46:10;9.40;95.30
3356;DHT22;1691;52.486;13.374;2023-12-29T05:48:39;9.50;95.20
3356;DHT22;1691;52.486;13.374;2023-12-29T05:51:10;9.50;95.10
3356;DHT22;1691;52.486;13.374;2023-12-29T05:53:39;9.60;95.00
3356;DHT22;1691;52.486;13.374;2023-12-29T05:56:07;9.60;95.00
3356;DHT22;1691;52.486;13.374;2023-12-29T05:58:34;9.60;94.90
3356;DHT22;1691;52.486;13.374;2023-12-29T06:01:01;9.60;94.80
3356;DHT22;1691;52.486;13.374;2023-12-29T06:03:28;9.60;94.70
3356;DHT22;1691;52.486;13.374;2023-12-29T06:05:55;9.60;94.60
3356;DHT22;1691;52.486;13.374;2023-12-29T06:08:22;9.50;94.60
3356;DHT22;1691;52.486;13.374;2023-12-29T06:10:49;9.50;94.60
3356;DHT22;1691;52.486;13.374;2023-12-29T06:13:16;9.50;94.70
3356;DHT22;1691;52.486;13.374;2023-12-29T06:15:43;9.50;94.70
3356;DHT22;1691;52.486;13.374;2023-12-29T06:18:10;9.50;94.70
3356;DHT22;1691;52.486;13.374;2023-12-29T06:20:38;9.50;94.60
3356;DHT22;1691;52.486;13.374;2023-12-29T06:23:05;9.60;94.60
3356;DHT22;1691;52.486;13.374;2023-12-29T06:25:32;9.60;94.60
3356;DHT22;1691;52.486;13.374;2023-12-29T06:28:02;9.60;94.50
3356;DHT22;1691;52.486;13.374;2023-12-29T06:30:31;9.70;94.40
3356;DHT22;1691;52.486;13.374;2023-12-29T06:32:58;9.70;94.40
3356;DHT22;1691;52.486;13.374;2023-12-29T06:35:25;9.70;94.30
3356;DHT22;1691;52.486;13.374;2023-12-29T06:37:52;9.80;94.30
3356;DHT22;1691;52.486;13.374;2023-12-29T06:40:19;9.80;94.10
3356;DHT22;1691;52.486;13.374;2023-12-29T06:42:46;9.90;94.00
3356;DHT22;1691;52.486;13.374;2023-12-29T06:45:14;9.90;94.00
3356;DHT22;1691;52.486;13.374;2023-12-29T06:47:41;9.90;93.90
3356;DHT22;1691;52.486;13.374;2023-12-29T06:50:08;9.90;93.90
3356;DHT22;1691;52.486;13.374;2023-12-29T06:52:40;10.00;93.70
3356;DHT22;1691;52.486;13.374;2023-12-29T06:55:07;10.00;93.60
3356;DHT22;1691;52.486;13.374;2023-12-29T06:57:35;10.00;93.50
3356;DHT22;1691;52.486;13.374;2023-12-29T07:00:03;10.00;93.60
3356;DHT22;1691;52.486;13.374;2023-12-29T07:02:31;10.10;93.50
3356;DHT22;1691;52.486;13.374;2023-12-29T07:04:58;10.10;93.50
3356;DHT22;1691;52.486;13.374;2023-12-29T07:07:25;10.10;93.40
3356;DHT22;1691;52.486;13.374;2023-12-29T07:09:52;10.10;93.40
3356;DHT22;1691;52.486;13.374;2023-12-29T07:12:19;10.10;93.40
3356;DHT22;1691;52.486;13.374;2023-12-29T07:14:46;10.10;93.30
3356;DHT22;1691;52.486;13.374;2023-12-29T07:17:13;10.10;93.30
3356;DHT22;1691;52.486;13.374;2023-12-29T07:19:40;10.20;93.30
3356;DHT22;1691;52.486;13.374;2023-12-29T07:22:07;10.20;93.20
3356;DHT22;1691;52.486;13.374;2023-12-29T07:24:35;10.20;93.20
3356;DHT22;1691;52.486;13.374;2023-12-29T07:27:04;10.20;93.10
3356;DHT22;1691;52.486;13.374;2023-12-29T07:29:31;10.30;93.10
3356;DHT22;1691;52.486;13.374;2023-12-29T07:31:58;10.30;93.00
3356;DHT22;1691;52.486;13.374;2023-12-29T07:34:26;10.30;93.00
3356;DHT22;1691;52.486;13.374;2023-12-29T07:36:54;10.30;93.00
3356;DHT22;1691;52.486;13.374;2023-12-29T07:39:21;10.30;93.00
3356;DHT22;1691;52.486;13.374;2023-12-29T07:41:48;10.30;93.00
3356;DHT22;1691;52.486;13.374;2023-12-29T07:44:15;10.30;93.00
3356;DHT22;1691;52.486;13.374;2023-12-29T07:46:42;10.30;92.90
3356;DHT22;1691;52.486;13.374;2023-12-29T07:49:10;10.30;92.70
3356;DHT22;1691;52.486;13.374;2023-12-29T07:51:42;10.30;92.70
3356;DHT22;1691;52.486;13.374;2023-12-29T07:54:11;10.20;92.80
3356;DHT22;1691;52.486;13.374;2023-12-29T07:56:38;10.20;92.90
3356;DHT22;1691;52.486;13.374;2023-12-29T07:59:05;10.30;92.90
3356;DHT22;1691;52.486;13.374;2023-12-29T08:01:32;10.30;92.90
3356;DHT22;1691;52.486;13.374;2023-12-29T08:04:00;10.40;92.90
3356;DHT22;1691;52.486;13.374;2023-12-29T08:06:27;10.50;92.90
3356;DHT22;1691;52.486;13.374;2023-12-29T08:08:54;10.70;92.90
3356;DHT22;1691;52.486;13.374;2023-12-29T08:11:21;11.10;92.80
3356;DHT22;1691;52.486;13.374;2023-12-29T08:13:48;11.40;92.30
3356;DHT22;1691;52.486;13.374;2023-12-29T08:16:16;11.50;91.70
3356;DHT22;1691;52.486;13.374;2023-12-29T08:18:49;11.60;91.40
3356;DHT22;1691;52.486;13.374;2023-12-29T08:21:18;11.80;91.40
3356;DHT22;1691;52.486;13.374;2023-12-29T08:23:46;12.00;90.80
3356;DHT22;1691;52.486;13.374;2023-12-29T08:26:14;11.90;90.50
3356;DHT22;1691;52.486;13.374;2023-12-29T08:28:42;11.80;90.40
3356;DHT22;1691;52.486;13.374;2023-12-29T08:31:09;11.80;90.50
3356;DHT22;1691;52.486;13.374;2023-12-29T08:33:36;11.80;90.80
3356;DHT22;1691;52.486;13.374;2023-12-29T08:36:04;12.20;90.70
3356;DHT22;1691;52.486;13.374;2023-12-29T08:38:31;12.60;90.10
3356;DHT22;1691;52.486;13.374;2023-12-29T08:40:59;12.70;89.20
3356;DHT22;1691;52.486;13.374;2023-12-29T08:43:26;13.10;88.60
3356;DHT22;1691;52.486;13.374;2023-12-29T08:45:53;13.60;87.70
3356;DHT22;1691;52.486;13.374;2023-12-29T08:48:21;14.10;86.20
3356;DHT22;1691;52.486;13.374;2023-12-29T08:50:49;14.30;84.90
3356;DHT22;1691;52.486;13.374;2023-12-29T08:53:16;14.40;83.80
3356;DHT22;1691;52.486;13.374;2023-12-29T08:55:44;14.30;83.00
3356;DHT22;1691;52.486;13.374;2023-12-29T08:58:12;14.10;83.40
3356;DHT22;1691;52.486;13.374;2023-12-29T09:00:39;13.90;82.80
3356;DHT22;1691;52.486;13.374;2023-12-29T09:03:06;13.40;83.20
3356;DHT22;1691;52.486;13.374;2023-12-29T09:05:34;13.00;83.80
3356;DHT22;1691;52.486;13.374;2023-12-29T09:08:01;12.70;84.50
3356;DHT22;1691;52.486;13.374;2023-12-29T09:10:28;12.40;85.20
3356;DHT22;1691;52.486;13.374;2023-12-29T09:12:55;12.40;86.20
3356;DHT22;1691;52.486;13.374;2023-12-29T09:15:22;12.70;86.70
3356;DHT22;1691;52.486;13.374;2023-12-29T09:17:49;13.20;86.20
3356;DHT22;1691;52.486;13.374;2023-12-29T09:20:16;13.40;84.50
3356;DHT22;1691;52.486;13.374;2023-12-29T09:22:44;13.40;83.80
3356;DHT22;1691;52.486;13.374;2023-12-29T09:25:11;13.40;83.90
3356;DHT22;1691;52.486;13.374;2023-12-29T09:27:38;13.30;83.90
3356;DHT22;1691;52.486;13.374;2023-12-29T09:30:06;13.30;84.10
3356;DHT22;1691;52.486;13.374;2023-12-29T09:32:33;13.30;83.90
3356;DHT22;1691;52.486;13.374;2023-12-29T09:35:00;13.30;83.80
3356;DHT22;1691;52.486;13.374;2023-12-29T09:37:28;13.20;83.80
3356;DHT22;1691;52.486;13.374;2023-12-29T09:39:55;13.10;83.90
3356;DHT22;1691;52.486;13.374;2023-12-29T09:42:22;13.10;84.10
3356;DHT22;1691;52.486;13.374;2023-12-29T09:44:50;13.00;84.10
3356;DHT22;1691;52.486;13.374;2023-12-29T09:47:23;12.90;84.10
3356;DHT22;1691;52.486;13.374;2023-12-29T09:49:54;12.80;84.30
3356;DHT22;1691;52.486;13.374;2023-12-29T09:52:22;12.70;84.70
3356;DHT22;1691;52.486;13.374;2023-12-29T09:54:52;12.70;84.90
3356;DHT22;1691;52.486;13.374;2023-12-29T09:57:20;12.60;84.90
3356;DHT22;1691;52.486;13.374;2023-12-29T09:59:49;12.60;85.10
3356;DHT22;1691;52.486;13.374;2023-12-29T10:02:20;12.50;84.90
3356;DHT22;1691;52.486;13.374;2023-12-29T10:04:49;12.50;85.10
3356;DHT22;1691;52.486;13.374;2023-12-29T10:07:26;12.40;85.20
3356;DHT22;1691;52.486;13.374;2023-12-29T10:09:56;12.40;85.20
3356;DHT22;1691;52.486;13.374;2023-12-29T10:12:25;12.40;85.40
3356;DHT22;1691;52.486;13.374;2023-12-29T10:15:14;12.30;85.40
3356;DHT22;1691;52.486;13.374;2023-12-29T10:23:18;12.40;86.20
3356;DHT22;1691;52.486;13.374;2023-12-29T10:25:48;12.60;86.00
3356;DHT22;1691;52.486;13.374;2023-12-29T10:28:16;12.80;85.60
3356;DHT22;1691;52.486;13.374;2023-12-29T10:30:44;12.90;84.90
3356;DHT22;1691;52.486;13.374;2023-12-29T10:33:19;12.90;84.50
3356;DHT22;1691;52.486;13.374;2023-12-29T10:35:59;12.90;84.30
3356;DHT22;1691;52.486;13.374;2023-12-29T10:38:31;12.90;84.10
3356;DHT22;1691;52.486;13.374;2023-12-29T10:41:17;12.90;84.30
3356;DHT22;1691;52.486;13.374;2023-12-29T10:43:46;12.90;83.90
3356;DHT22;1691;52.486;13.374;2023-12-29T10:46:21;12.90;84.30
3356;DHT22;1691;52.486;13.374;2023-12-29T10:48:48;12.90;84.10
3356;DHT22;1691;52.486;13.374;2023-12-29T10:51:16;12.80;83.80
3356;DHT22;1691;52.486;13.374;2023-12-29T10:53:56;12.70;83.60
3356;DHT22;1691;52.486;13.374;2023-12-29T10:56:23;12.70;84.10
3356;DHT22;1691;52.486;13.374;2023-12-29T10:59:04;12.70;84.10
3356;DHT22;1691;52.486;13.374;2023-12-29T11:01:35;12.70;84.10
3356;DHT22;1691;52.486;13.374;2023-12-29T11:04:06;12.70;84.10
3356;DHT22;1691;52.486;13.374;2023-12-29T11:06:44;12.70;83.80
3356;DHT22;1691;52.486;13.374;2023-12-29T11:09:14;12.70;83.80
3356;DHT22;1691;52.486;13.374;2023-12-29T11:11:56;12.70;83.80
3356;DHT22;1691;52.486;13.374;2023-12-29T11:14:28;12.70;83.80
3356;DHT22;1691;52.486;13.374;2023-12-29T11:16:56;12.70;83.60
3356;DHT22;1691;52.486;13.374;2023-12-29T11:19:23;12.70;83.40
3356;DHT22;1691;52.486;13.374;2023-12-29T11:21:55;12.60;83.60
3356;DHT22;1691;52.486;13.374;2023-12-29T11:24:23;12.60;83.20
3356;DHT22;1691;52.486;13.374;2023-12-29T11:27:05;12.60;83.20
3356;DHT22;1691;52.486;13.374;2023-12-29T11:29:35;12.60;83.00
3356;DHT22;1691;52.486;13.374;2023-12-29T11:32:04;12.60;83.00
3356;DHT22;1691;52.486;13.374;2023-12-29T11:34:37;12.60;83.20
3356;DHT22;1691;52.486;13.374;2023-12-29T11:37:23;12.60;83.00
3356;DHT22;1691;52.486;13.374;2023-12-29T11:40:19;12.50;83.00
3356;DHT22;1691;52.486;13.374;2023-12-29T11:42:51;12.50;82.80
3356;DHT22;1691;52.486;13.374;2023-12-29T11:47:58;12.50;83.00
3356;DHT22;1691;52.486;13.374;2023-12-29T11:50:30;12.40;83.40
3356;DHT22;1691;52.486;13.374;2023-12-29T11:53:05;12.50;83.40
3356;DHT22;1691;52.486;13.374;2023-12-29T11:55:37;12.50;83.60
3356;DHT22;1691;52.486;13.374;2023-12-29T11:58:23;12.50;83.60
3356;DHT22;1691;52.486;13.374;2023-12-29T12:00:50;12.50;83.60
3356;DHT22;1691;52.486;13.374;2023-12-29T12:03:28;12.50;83.80
3356;DHT22;1691;52.486;13.374;2023-12-29T12:05:56;12.50;83.60
3356;DHT22;1691;52.486;13.374;2023-12-29T12:08:35;12.40;83.80
3356;DHT22;1691;52.486;13.374;2023-12-29T12:13:55;12.40;84.10
3356;DHT22;1691;52.486;13.374;2023-12-29T12:19:12;12.40;84.50
3356;DHT22;1691;52.486;13.374;2023-12-29T12:21:40;12.30;85.10
3356;DHT22;1691;52.486;13.374;2023-12-29T12:24:08;12.30;85.10
3356;DHT22;1691;52.486;13.374;2023-12-29T12:26:35;12.30;85.20
3356;DHT22;1691;52.486;13.374;2023-12-29T12:29:04;12.20;85.20
3356;DHT22;1691;52.486;13.374;2023-12-29T12:31:31;12.20;85.40
3356;DHT22;1691;52.486;13.374;2023-12-29T12:33:59;12.10;86.00
3356;DHT22;1691;52.486;13.374;2023-12-29T12:36:29;12.00;86.70
3356;DHT22;1691;52.486;13.374;2023-12-29T12:38:57;12.00;87.10
3356;DHT22;1691;52.486;13.374;2023-12-29T12:41:26;11.90;87.70
3356;DHT22;1691;52.486;13.374;2023-12-29T12:44:13;11.90;87.90
3356;DHT22;1691;52.486;13.374;2023-12-29T12:49:12;11.80;88.80
3356;DHT22;1691;52.486;13.374;2023-12-29T12:51:40;11.80;89.20
3356;DHT22;1691;52.486;13.374;2023-12-29T12:54:07;11.70;89.30
3356;DHT22;1691;52.486;13.374;2023-12-29T12:56:36;11.70;89.70
3356;DHT22;1691;52.486;13.374;2023-12-29T12:59:04;11.70;90.10
3356;DHT22;1691;52.486;13.374;2023-12-29T13:01:35;11.70;90.20
3356;DHT22;1691;52.486;13.374;2023-12-29T13:04:04;11.60;90.40
3356;DHT22;1691;52.486;13.374;2023-12-29T13:06:33;11.60;90.60
3356;DHT22;1691;52.486;13.374;2023-12-29T13:09:01;11.50;90.90
3356;DHT22;1691;52.486;13.374;2023-12-29T13:11:34;11.50;91.10
3356;DHT22;1691;52.486;13.374;2023-12-29T13:14:01;11.50;91.40
3356;DHT22;1691;52.486;13.374;2023-12-29T13:16:33;11.40;91.70
3356;DHT22;1691;52.486;13.374;2023-12-29T13:21:55;11.40;92.00
3356;DHT22;1691;52.486;13.374;2023-12-29T13:24:23;11.40;92.20
3356;DHT22;1691;52.486;13.374;2023-12-29T13:26:58;11.40;92.30
3356;DHT22;1691;52.486;13.374;2023-12-29T13:29:30;11.40;92.40
3356;DHT22;1691;52.486;13.374;2023-12-29T13:37:50;11.40;92.50
3356;DHT22;1691;52.486;13.374;2023-12-29T13:43:21;11.40;92.50
3356;DHT22;1691;52.486;13.374;2023-12-29T13:45:49;11.40;92.50
3356;DHT22;1691;52.486;13.374;2023-12-29T13:48:16;11.40;92.50
3356;DHT22;1691;52.486;13.374;2023-12-29T13:50:48;11.50;92.40
3356;DHT22;1691;52.486;13.374;2023-12-29T13:53:21;11.40;92.40
3356;DHT22;1691;52.486;13.374;2023-12-29T13:55:49;11.50;92.40
3356;DHT22;1691;52.486;13.374;2023-12-29T13:58:16;11.50;92.40
3356;DHT22;1691;52.486;13.374;2023-12-29T14:00:46;11.50;92.40
3356;DHT22;1691;52.486;13.374;2023-12-29T14:03:46;11.50;92.30
3356;DHT22;1691;52.486;13.374;2023-12-29T14:06:22;11.50;92.30
3356;DHT22;1691;52.486;13.374;2023-12-29T14:09:16;11.50;92.30
3356;DHT22;1691;52.486;13.374;2023-12-29T14:11:48;11.50;92.40
3356;DHT22;1691;52.486;13.374;2023-12-29T14:14:22;11.50;92.40
3356;DHT22;1691;52.486;13.374;2023-12-29T14:16:54;11.50;92.40
3356;DHT22;1691;52.486;13.374;2023-12-29T14:19:21;11.50;92.40
3356;DHT22;1691;52.486;13.374;2023-12-29T14:21:52;11.50;92.40
3356;DHT22;1691;52.486;13.374;2023-12-29T14:24:21;11.50;92.40
3356;DHT22;1691;52.486;13.374;2023-12-29T14:26:55;11.50;92.40
3356;DHT22;1691;52.486;13.374;2023-12-29T14:29:23;11.60;92.30
3356;DHT22;1691;52.486;13.374;2023-12-29T14:31:50;11.60;92.20
3356;DHT22;1691;52.486;13.374;2023-12-29T14:34:19;11.60;92.20
3356;DHT22;1691;52.486;13.374;2023-12-29T14:36:46;11.60;92.10
3356;DHT22;1691;52.486;13.374;2023-12-29T14:39:14;11.60;92.10
3356;DHT22;1691;52.486;13.374;2023-12-29T14:41:42;11.60;92.10
3356;DHT22;1691;52.486;13.374;2023-12-29T14:44:09;11.60;92.00
3356;DHT22;1691;52.486;13.374;2023-12-29T14:46:36;11.70;91.90
3356;DHT22;1691;52.486;13.374;2023-12-29T14:49:06;11.70;91.90
3356;DHT22;1691;52.486;13.374;2023-12-29T14:51:34;11.70;91.80
3356;DHT22;1691;52.486;13.374;2023-12-29T14:54:01;11.70;91.80
3356;DHT22;1691;52.486;13.374;2023-12-29T14:56:30;11.70;91.80
3356;DHT22;1691;52.486;13.374;2023-12-29T14:58:57;11.70;91.80
3356;DHT22;1691;52.486;13.374;2023-12-29T15:01:24;11.70;91.80
3356;DHT22;1691;52.486;13.374;2023-12-29T15:03:53;11.70;91.70
3356;DHT22;1691;52.486;13.374;2023-12-29T15:06:20;11.70;91.80
3356;DHT22;1691;52.486;13.374;2023-12-29T15:08:47;11.70;91.80
3356;DHT22;1691;52.486;13.374;2023-12-29T15:11:14;11.60;92.00
3356;DHT22;1691;52.486;13.374;2023-12-29T15:13:41;11.50;92.20
3356;DHT22;1691;52.486;13.374;2023-12-29T15:16:09;11.50;92.30
3356;DHT22;1691;52.486;13.374;2023-12-29T15:18:36;11.40;92.30
3356;DHT22;1691;52.486;13.374;2023-12-29T15:21:04;11.30;92.40
3356;DHT22;1691;52.486;13.374;2023-12-29T15:23:31;11.20;92.50
3356;DHT22;1691;52.486;13.374;2023-12-29T15:25:59;11.20;92.70
3356;DHT22;1691;52.486;13.374;2023-12-29T15:28:26;11.20;92.80
3356;DHT22;1691;52.486;13.374;2023-12-29T15:30:53;11.20;93.00
3356;DHT22;1691;52.486;13.374;2023-12-29T15:33:20;11.20;93.00
3356;DHT22;1691;52.486;13.374;2023-12-29T15:35:48;11.20;93.00
3356;DHT22;1691;52.486;13.374;2023-12-29T15:38:16;11.20;93.20
3356;DHT22;1691;52.486;13.374;2023-12-29T15:40:42;11.10;93.30
3356;DHT22;1691;52.486;13.374;2023-12-29T15:43:09;11.10;93.50
3356;DHT22;1691;52.486;13.374;2023-12-29T15:45:36;11.00;93.70
3356;DHT22;1691;52.486;13.374;2023-12-29T15:48:04;11.00;93.80
3356;DHT22;1691;52.486;13.374;2023-12-29T15:50:32;11.00;93.80
3356;DHT22;1691;52.486;13.374;2023-12-29T15:52:59;11.00;93.80
3356;DHT22;1691;52.486;13.374;2023-12-29T15:55:27;10.90;93.80
3356;DHT22;1691;52.486;13.374;2023-12-29T15:57:54;10.90;93.90
3356;DHT22;1691;52.486;13.374;2023-12-29T16:00:21;10.90;93.90
3356;DHT22;1691;52.486;13.374;2023-12-29T16:02:49;10.80;94.00
3356;DHT22;1691;52.486;13.374;2023-12-29T16:05:16;10.80;94.10
3356;DHT22;1691;52.486;13.374;2023-12-29T16:07:43;10.80;94.10
3356;DHT22;1691;52.486;13.374;2023-12-29T16:10:11;10.80;94.10
3356;DHT22;1691;52.486;13.374;2023-12-29T16:12:37;10.80;94.20
3356;DHT22;1691;52.486;13.374;2023-12-29T16:15:05;10.80;94.20
3356;DHT22;1691;52.486;13.374;2023-12-29T16:17:33;10.80;94.20
3356;DHT22;1691;52.486;13.374;2023-12-29T16:20:00;10.80;94.20
3356;DHT22;1691;52.486;13.374;2023-12-29T16:22:27;10.80;94.20
3356;DHT22;1691;52.486;13.374;2023-12-29T16:24:54;10.80;94.30
3356;DHT22;1691;52.486;13.374;2023-12-29T16:27:21;10.80;94.30
3356;DHT22;1691;52.486;13.374;2023-12-29T16:29:48;10.70;94.40
3356;DHT22;1691;52.486;13.374;2023-12-29T16:32:22;10.70;94.40
3356;DHT22;1691;52.486;13.374;2023-12-29T16:34:49;10.70;94.50
3356;DHT22;1691;52.486;13.374;2023-12-29T16:37:16;10.70;94.60
3356;DHT22;1691;52.486;13.374;2023-12-29T16:39:44;10.70;94.60